Data for 03/21/2014

Time Sea-Level Adjusted Pressure Absolute Pressure Temperature Relative Humidity Dew Point   
(mb) (inHg) (mb) (inHg) (C) (F) (%) (C) (F)
00:05 1020 30.12 850 25.1 -4 24.9 58 -11 12.2
00:10 1020 30.12 850 25.1 -3.9 24.9 58 -10.9 12.3
00:15 1020 30.12 850 25.1 -3.8 25.1 59 -10.8 12.6
00:20 1020 30.12 850 25.1 -3.7 25.4 59 -10.7 12.8
00:25 1021 30.15 850 25.1 -3.7 25.4 59 -10.6 12.9
00:30 1021 30.15 850 25.1 -3.6 25.5 59 -10.6 12.9
00:35 1021 30.15 850 25.1 -3.6 25.6 58 -10.6 13
00:40 1021 30.15 850 25.1 -3.5 25.6 58 -10.6 12.8
00:45 1021 30.15 850 25.1 -3.5 25.8 58 -10.5 13.1
00:50 1021 30.15 850 25.1 -3.4 25.8 59 -10.4 13.3
00:55 1021 30.15 850 25.1 -3.4 25.8 58 -10.5 13.1
01:00 1021 30.15 850 25.1 -3.5 25.7 59 -10.4 13.4
01:05 1021 30.15 850 25.1 -3.8 25.2 61 -10.3 13.4
01:10 1021 30.15 850 25.1 -3.8 25.2 61 -10.3 13.5
01:15 1021 30.15 850 25.1 -3.8 25.2 62 -10.1 13.8
01:20 1021 30.15 850 25.1 -3.9 25 61 -10.4 13.3
01:25 1021 30.15 850 25.1 -4 24.8 61 -10.4 13.3
01:30 1021 30.15 850 25.1 -3.9 25 62 -10.2 13.7
01:35 1021 30.15 850 25.1 -3.9 24.9 62 -10.3 13.5
01:40 1021 30.15 850 25.1 -3.9 25 61 -10.4 13.3
01:45 1021 30.15 850 25.1 -3.8 25.2 60 -10.4 13.3
01:50 1021 30.15 850 25.1 -4 24.8 62 -10.3 13.4
01:55 1021 30.15 850 25.1 -4.2 24.5 62 -10.5 13.1
02:00 1021 30.15 850 25.1 -4.2 24.4 62 -10.5 13.2
02:05 1021 30.15 850 25.1 -4.2 24.4 69 -9.1 15.5
02:10 1021 30.15 850 25.1 -4.3 24.2 75 -8.1 17.5
02:15 1021 30.15 850 25.1 -4.6 23.8 77 -8 17.5
02:20 1021 30.15 850 25.1 -4.5 23.8 76 -8.1 17.4
02:25 1021 30.15 850 25.1 -4.4 24.1 77 -7.9 17.8
02:30 1021 30.15 850 25.1 -4.4 24.1 78 -7.7 18.1
02:35 1021 30.15 850 25.1 -4.4 24.1 76 -8 17.7
02:40 1021 30.15 850 25.1 -4.3 24.2 77 -7.8 17.9
02:45 1021 30.15 850 25.1 -4.3 24.3 77 -7.8 18
02:50 1021 30.15 850 25.1 -4.3 24.3 77 -7.8 18
02:55 1021 30.15 850 25.1 -4.3 24.2 77 -7.7 18.1
03:00 1021 30.15 850 25.1 -4.4 24.1 78 -7.6 18.3
03:05 1021 30.15 850 25.1 -4.4 24 78 -7.8 18
03:10 1021 30.15 850 25.1 -4.5 24 78 -7.7 18.1
03:15 1021 30.15 851 25.13 -4.6 23.8 78 -7.8 17.9
03:20 1021 30.15 851 25.13 -4.6 23.7 78 -7.8 17.9
03:25 1021 30.15 851 25.13 -4.7 23.6 79 -7.8 18
03:30 1021 30.15 851 25.13 -4.7 23.5 80 -7.7 18.1
03:35 1021 30.15 851 25.13 -4.7 23.5 80 -7.6 18.3
03:40 1021 30.15 851 25.13 -5 23 82 -7.6 18.4
03:45 1021 30.15 851 25.13 -5.4 22.4 84 -7.7 18.2
03:50 1021 30.15 851 25.13 -5.4 22.3 84 -7.8 18
03:55 1021 30.15 851 25.13 -5.3 22.5 83 -7.7 18.1
04:00 1021 30.15 851 25.13 -5.2 22.6 82 -7.8 18
04:05 1021 30.15 851 25.13 -5.4 22.3 75 -9.2 15.4
04:10 1021 30.15 851 25.13 -5.6 22 72 -9.8 14.3
04:15 1022 30.18 851 25.13 -5.4 22.3 70 -10 14.1
04:20 1022 30.18 851 25.13 -5.2 22.7 68 -10.2 13.7
04:25 1022 30.18 851 25.13 -5.1 22.8 68 -10.2 13.7
04:30 1022 30.18 851 25.13 -5 22.9 69 -9.9 14.1
04:35 1022 30.18 851 25.13 -4.9 23.2 70 -9.5 14.9
04:40 1022 30.18 851 25.13 -4.9 23.2 73 -9 15.8
04:45 1022 30.18 851 25.13 -5 23 77 -8.5 16.7
04:50 1022 30.18 851 25.13 -5.1 22.9 78 -8.2 17.2
04:55 1022 30.18 851 25.13 -5.1 22.8 80 -8 17.6
05:00 1022 30.18 851 25.13 -5.1 22.8 81 -7.9 17.8
05:05 1022 30.18 851 25.13 -5.1 22.8 82 -7.7 18.1
05:10 1022 30.18 851 25.13 -5.1 22.8 83 -7.6 18.4
05:15 1022 30.18 851 25.13 -5.1 22.8 83 -7.6 18.3
05:20 1022 30.18 851 25.13 -5.1 22.8 83 -7.5 18.5
05:25 1022 30.18 851 25.13 -5.1 22.8 84 -7.4 18.7
05:30 1022 30.18 851 25.13 -5.1 22.7 85 -7.3 18.8
05:35 1022 30.18 851 25.13 -5.1 22.8 86 -7.1 19.1
05:40 1022 30.18 851 25.13 -5.2 22.7 87 -7 19.3
05:45 1022 30.18 851 25.13 -5.2 22.6 88 -6.9 19.6
05:50 1022 30.18 851 25.13 -5.3 22.5 88 -6.9 19.6
05:55 1022 30.18 851 25.13 -5.3 22.4 89 -6.8 19.7
06:00 1022 30.18 851 25.13 -5.3 22.5 89 -6.9 19.7
06:05 1022 30.18 851 25.13 -5.4 22.3 86 -7.4 18.6
06:10 1022 30.18 851 25.13 -5.4 22.2 87 -7.2 19
06:15 1022 30.18 851 25.13 -5.4 22.3 87 -7.2 19
06:20 1022 30.18 851 25.13 -5.3 22.5 87 -7.2 19
06:25 1022 30.18 851 25.13 -5.2 22.6 86 -7.1 19.1
06:30 1022 30.18 851 25.13 -5.2 22.7 86 -7.1 19.2
06:35 1022 30.18 851 25.13 -5.2 22.6 86 -7.2 19
06:40 1022 30.18 851 25.13 -5.2 22.6 86 -7.3 18.9
06:45 1022 30.18 851 25.13 -5.3 22.5 86 -7.3 18.8
06:50 1022 30.18 852 25.16 -5.3 22.4 85 -7.5 18.6
06:55 1022 30.18 852 25.16 -5.4 22.3 85 -7.5 18.4
07:00 1022 30.18 852 25.16 -5.3 22.4 85 -7.5 18.5
07:05 1022 30.18 852 25.16 -5.2 22.6 84 -7.5 18.5
07:10 1022 30.18 852 25.16 -5.2 22.6 84 -7.5 18.5
07:15 1022 30.18 852 25.16 -5.2 22.6 84 -7.5 18.5
07:20 1022 30.18 852 25.16 -5.2 22.7 83 -7.5 18.4
07:25 1022 30.18 852 25.16 -5.1 22.8 83 -7.6 18.3
07:30 1022 30.18 852 25.16 -5.1 22.9 83 -7.6 18.4
07:35 1022 30.18 852 25.16 -5.1 22.8 83 -7.6 18.3
07:40 1022 30.18 852 25.16 -5.1 22.8 83 -7.6 18.4
07:45 1022 30.18 852 25.16 -5.1 22.9 82 -7.6 18.3
07:50 1022 30.18 852 25.16 -5.1 22.8 82 -7.7 18.1
07:55 1022 30.18 852 25.16 -5.1 22.8 81 -7.9 17.8
08:00 1022 30.18 852 25.16 -5.1 22.8 81 -7.9 17.9
08:05 1022 30.18 852 25.16 -5.1 22.9 80 -8 17.7
08:10 1022 30.18 852 25.16 -5 23 79 -8 17.5
08:15 1022 30.18 852 25.16 -4.9 23.1 80 -7.9 17.8
08:20 1023 30.21 852 25.16 -4.8 23.3 79 -7.9 17.7
08:25 1023 30.21 852 25.16 -4.8 23.4 79 -7.9 17.7
08:30 1023 30.21 852 25.16 -4.7 23.5 79 -7.8 18
08:35 1023 30.21 852 25.16 -4.5 23.9 76 -8.1 17.5
08:40 1023 30.21 852 25.16 -4.4 24 76 -8 17.5
08:45 1023 30.21 852 25.16 -4.5 23.9 77 -8 17.5
08:50 1023 30.21 852 25.16 -4.4 24 77 -8 17.7
08:55 1023 30.21 852 25.16 -4.3 24.2 76 -7.9 17.7
09:00 1023 30.21 852 25.16 -4.3 24.3 76 -7.9 17.7
09:05 1023 30.21 852 25.16 -4.1 24.6 73 -8.3 17.1
09:10 1023 30.21 852 25.16 -4 24.8 73 -8.1 17.4
09:15 1023 30.21 852 25.16 -3.7 25.3 72 -8 17.6
09:20 1023 30.21 852 25.16 -3.5 25.7 76 -7.2 19
09:25 1023 30.21 852 25.16 -3.3 26.1 71 -7.8 17.9
09:30 1023 30.21 852 25.16 -3.3 26.1 69 -8.1 17.4
09:35 1023 30.21 852 25.16 -3.6 25.5 70 -8.3 17.1
09:40 1023 30.21 852 25.16 -3.3 26.1 67 -8.5 16.7
09:45 1023 30.21 852 25.16 -3.1 26.5 65 -8.7 16.3
09:50 1023 30.21 852 25.16 -3.9 25 69 -8.8 16.2
09:55 1023 30.21 852 25.16 -3.9 25 66 -9.3 15.3
10:00 1023 30.21 852 25.16 -3.7 25.3 63 -9.7 14.5
10:05 1023 30.21 852 25.16 -4.1 24.6 65 -9.7 14.6
10:10 1023 30.21 852 25.16 -3.9 25 65 -9.5 15
10:15 1023 30.21 852 25.16 -3 26.5 61 -9.5 14.9
10:20 1023 30.21 852 25.16 -2.5 27.6 59 -9.3 15.2
10:25 1023 30.21 852 25.16 -2.7 27.2 63 -8.7 16.4
10:30 1023 30.21 852 25.16 -3 26.6 62 -9.3 15.3
10:35 1023 30.21 852 25.16 -3.1 26.5 62 -9.4 15.1
10:40 1023 30.21 852 25.16 -2.7 27.2 60 -9.3 15.3
10:45 1023 30.21 852 25.16 -2.6 27.4 61 -9.1 15.6
10:50 1023 30.21 852 25.16 -2.5 27.5 60 -9.2 15.4
10:55 1023 30.21 852 25.16 -2.2 28 60 -8.9 15.9
11:00 1023 30.21 852 25.16 -2.2 28 60 -8.9 15.9
11:05 1022 30.18 852 25.16 -3.4 25.9 63 -9.5 15
11:10 1022 30.18 852 25.16 -3.2 26.2 61 -9.6 14.6
11:15 1022 30.18 852 25.16 -2.3 27.8 59 -9.4 15.1
11:20 1022 30.18 852 25.16 -1.9 28.5 57 -9.4 15.1
11:25 1022 30.18 851 25.13 -1.9 28.6 57 -9.2 15.4
11:30 1022 30.18 851 25.13 -2.4 27.7 60 -9.2 15.4
11:35 1022 30.18 851 25.13 -1.8 28.7 56 -9.6 14.8
11:40 1022 30.18 851 25.13 -1.6 29.1 56 -9.2 15.4
11:45 1022 30.18 851 25.13 -1.8 28.7 58 -9 15.8
11:50 1022 30.18 851 25.13 -1.9 28.6 60 -8.7 16.3
11:55 1022 30.18 851 25.13 -1.7 29 57 -9 15.7
12:00 1022 30.18 851 25.13 -1.4 29.4 57 -8.8 16.2
12:05 1022 30.18 851 25.13 -1.4 29.5 58 -8.6 16.5
12:10 1022 30.18 851 25.13 -1.1 30 49 -10.6 12.9
12:15 1022 30.18 851 25.13 -1.8 28.7 50 -10.9 12.4
12:20 1022 30.18 851 25.13 -1.5 29.2 50 -10.6 12.9
12:25 1022 30.18 851 25.13 -1.7 29 54 -9.8 14.3
12:30 1022 30.18 851 25.13 -1.9 28.6 54 -10 14
12:35 1022 30.18 851 25.13 -0.7 30.8 51 -9.7 14.5
12:40 1022 30.18 851 25.13 0 32.1 47 -9.9 14.2
12:45 1022 30.18 851 25.13 -0.6 31 51 -9.5 15
12:50 1022 30.18 851 25.13 -1.5 29.3 51 -10.4 13.2
12:55 1022 30.18 851 25.13 -0.9 30.4 50 -10.2 13.7
13:00 1022 30.18 851 25.13 -0.7 30.7 51 -9.6 14.8
13:05 1022 30.18 851 25.13 -0.8 30.5 51 -9.6 14.7
13:10 1021 30.15 851 25.13 -1 30.1 52 -9.6 14.7
13:15 1021 30.15 851 25.13 -0.5 31.1 49 -9.9 14.1
13:20 1021 30.15 851 25.13 0.1 32.2 52 -8.8 16.2
13:25 1021 30.15 851 25.13 0.5 32.9 47 -9.5 14.8
13:30 1021 30.15 850 25.1 0.5 32.9 47 -9.6 14.7
13:35 1021 30.15 850 25.1 -0.6 30.9 50 -9.7 14.6
13:40 1021 30.15 850 25.1 -1 30.1 47 -11 12.2
13:45 1021 30.15 850 25.1 -0.1 31.8 42 -11.4 11.4
13:50 1021 30.15 850 25.1 -0.9 30.4 47 -10.8 12.5
13:55 1021 30.15 850 25.1 -0.1 31.8 46 -10.4 13.3
14:00 1021 30.15 850 25.1 0.9 33.6 48 -9 15.9
14:05 1021 30.15 850 25.1 0.7 33.3 41 -11.1 11.9
14:10 1021 30.15 850 25.1 0.3 32.5 43 -10.8 12.6
14:15 1021 30.15 850 25.1 -0.2 31.6 46 -10.6 12.9
14:20 1021 30.15 850 25.1 0.1 32.3 47 -9.9 14.1
14:25 1021 30.15 850 25.1 0.4 32.7 49 -9.1 15.6
14:30 1021 30.15 850 25.1 -0.4 31.3 49 -9.8 14.4
14:35 1021 30.15 850 25.1 -0.5 31.1 49 -10 14
14:40 1021 30.15 850 25.1 -0.3 31.4 49 -9.9 14.2
14:45 1021 30.15 850 25.1 -0.1 31.9 46 -10.4 13.3
14:50 1021 30.15 850 25.1 -0.6 31 49 -9.9 14.1
14:55 1021 30.15 850 25.1 -0.7 30.8 49 -10.2 13.6
15:00 1021 30.15 850 25.1 -0.3 31.4 50 -9.5 14.9
15:05 1021 30.15 850 25.1 0.2 32.3 47 -9.8 14.3
15:10 1021 30.15 850 25.1 0.5 32.9 44 -10.5 13.1
15:15 1021 30.15 850 25.1 0.7 33.3 40 -11.3 11.6
15:20 1021 30.15 850 25.1 0 32 42 -11.4 11.5
15:25 1021 30.15 850 25.1 0 32 45 -10.5 13.1
15:30 1021 30.15 850 25.1 1.3 34.4 35 -12.7 9.1
15:35 1021 30.15 850 25.1 1.3 34.4 42 -10.3 13.5
15:40 1021 30.15 850 25.1 0.7 33.3 42 -10.6 12.8
15:45 1021 30.15 850 25.1 1.1 34 45 -9.6 14.7
15:50 1021 30.15 850 25.1 1.6 34.8 42 -10.1 13.8
15:55 1021 30.15 850 25.1 1.7 35.1 39 -10.7 12.8
16:00 1021 30.15 850 25.1 2.2 36 38 -10.6 12.9
16:05 1021 30.15 850 25.1 1.6 34.9 46 -8.9 15.9
16:10 1021 30.15 850 25.1 -0.4 31.2 52 -9.2 15.5
16:15 1021 30.15 850 25.1 -1 30.1 53 -9.5 15
16:20 1021 30.15 850 25.1 -1.4 29.5 55 -9.2 15.4
16:25 1021 30.15 850 25.1 -1 30.2 55 -9 15.8
16:30 1021 30.15 850 25.1 -1.1 30.1 57 -8.5 16.7
16:35 1021 30.15 850 25.1 -1.4 29.5 58 -8.5 16.7
16:40 1021 30.15 850 25.1 -1.8 28.7 59 -8.8 16.2
16:45 1021 30.15 850 25.1 -1.9 28.5 59 -8.8 16.1
16:50 1021 30.15 850 25.1 -1.8 28.7 59 -8.7 16.3
16:55 1021 30.15 850 25.1 -2 28.4 59 -9 15.7
17:00 1021 30.15 850 25.1 -2.2 28.1 59 -9.1 15.7
17:05 1021 30.15 850 25.1 -1.9 28.6 59 -9 15.8
17:10 1021 30.15 850 25.1 -2.2 28.1 58 -9.3 15.3
17:15 1021 30.15 850 25.1 -2.3 27.8 59 -9.4 15.1
17:20 1021 30.15 850 25.1 -2.3 27.8 58 -9.4 15
17:25 1021 30.15 850 25.1 -2.4 27.7 58 -9.5 14.9
17:30 1021 30.15 850 25.1 -2.5 27.4 59 -9.5 14.9
17:35 1021 30.15 850 25.1 -2.7 27.2 59 -9.7 14.5
17:40 1021 30.15 850 25.1 -2.8 26.9 60 -9.7 14.6
17:45 1021 30.15 850 25.1 -3 26.6 62 -9.4 15.1
17:50 1021 30.15 850 25.1 -3.2 26.2 64 -9.1 15.5
17:55 1021 30.15 850 25.1 -3.5 25.7 63 -9.5 14.8
18:00 1021 30.15 850 25.1 -3.6 25.5 64 -9.6 14.8
18:05 1021 30.15 850 25.1 -3.7 25.4 64 -9.6 14.8
18:10 1021 30.15 850 25.1 -3.8 25.1 64 -9.7 14.5
18:15 1021 30.15 850 25.1 -3.9 24.9 64 -9.8 14.4
18:20 1021 30.15 850 25.1 -4 24.7 64 -9.9 14.2
18:25 1021 30.15 850 25.1 -4 24.7 64 -9.8 14.3
18:30 1021 30.15 850 25.1 -4.1 24.6 64 -10 14
18:35 1021 30.15 850 25.1 -4.2 24.5 64 -9.9 14.2
18:40 1021 30.15 850 25.1 -4.2 24.4 65 -9.9 14.2
18:45 1021 30.15 850 25.1 -4.2 24.4 66 -9.8 14.4
18:50 1021 30.15 850 25.1 -4.4 24.2 66 -9.8 14.3
18:55 1021 30.15 850 25.1 -4.4 24 67 -9.7 14.5
19:00 1021 30.15 850 25.1 -4.5 23.9 67 -9.8 14.4
19:05 1021 30.15 850 25.1 -4.5 23.9 67 -9.8 14.4
19:10 1021 30.15 850 25.1 -4.6 23.8 67 -9.7 14.5
19:15 1021 30.15 850 25.1 -4.6 23.7 68 -9.7 14.5
19:20 1021 30.15 850 25.1 -4.6 23.6 68 -9.7 14.5
19:25 1021 30.15 850 25.1 -4.7 23.6 68 -9.7 14.6
19:30 1021 30.15 850 25.1 -4.7 23.5 69 -9.5 14.8
19:35 1021 30.15 850 25.1 -4.8 23.4 70 -9.4 15
19:40 1021 30.15 850 25.1 -4.8 23.3 70 -9.4 15.1
19:45 1021 30.15 850 25.1 -4.8 23.3 70 -9.5 14.9
19:50 1021 30.15 850 25.1 -4.9 23.3 71 -9.4 15
19:55 1021 30.15 850 25.1 -4.9 23.1 71 -9.4 15.1
20:00 1021 30.15 850 25.1 -5 23 72 -9.3 15.2
20:05 1021 30.15 850 25.1 -5.1 22.8 73 -9.2 15.4
20:10 1021 30.15 850 25.1 -5.1 22.7 74 -9.2 15.5
20:15 1021 30.15 850 25.1 -5.2 22.6 75 -9 15.9
20:20 1021 30.15 850 25.1 -5.3 22.5 77 -8.7 16.3
20:25 1021 30.15 850 25.1 -5.4 22.3 77 -8.7 16.3
20:30 1021 30.15 850 25.1 -5.5 22.1 78 -8.8 16.2
20:35 1021 30.15 850 25.1 -5.6 21.8 77 -9 15.7
20:40 1021 30.15 850 25.1 -5.7 21.7 77 -9.2 15.5
20:45 1021 30.15 851 25.13 -5.8 21.5 77 -9.3 15.3
20:50 1021 30.15 851 25.13 -5.9 21.4 76 -9.5 14.9
20:55 1021 30.15 851 25.13 -6 21.3 75 -9.6 14.6
21:00 1021 30.15 851 25.13 -6 21.1 76 -9.6 14.7
21:05 1021 30.15 851 25.13 -6.1 21 77 -9.6 14.7
21:10 1021 30.15 851 25.13 -6.2 20.8 78 -9.5 14.8
21:15 1022 30.18 851 25.13 -6.3 20.6 78 -9.6 14.7
21:20 1022 30.18 851 25.13 -6.4 20.5 78 -9.6 14.6
21:25 1022 30.18 851 25.13 -6.5 20.3 78 -9.7 14.5
21:30 1022 30.18 851 25.13 -6.6 20.1 78 -9.8 14.3
21:35 1022 30.18 851 25.13 -6.7 20 78 -9.9 14.2
21:40 1022 30.18 851 25.13 -6.7 19.9 78 -10 14.1
21:45 1022 30.18 851 25.13 -6.8 19.8 78 -10 14
21:50 1022 30.18 851 25.13 -6.9 19.7 78 -10.1 13.8
21:55 1022 30.18 851 25.13 -6.9 19.6 78 -10.1 13.8
22:00 1022 30.18 851 25.13 -7 19.5 77 -10.4 13.2
22:05 1022 30.18 851 25.13 -7 19.4 77 -10.4 13.3
22:10 1022 30.18 851 25.13 -7.1 19.3 77 -10.4 13.2
22:15 1022 30.18 851 25.13 -7.1 19.2 77 -10.5 13.1
22:20 1022 30.18 851 25.13 -7.2 19.1 76 -10.7 12.8
22:25 1022 30.18 851 25.13 -7.2 19.1 77 -10.6 12.9
22:30 1022 30.18 851 25.13 -7.3 19 77 -10.6 13
22:35 1022 30.18 851 25.13 -7.3 18.9 77 -10.6 12.9
22:40 1022 30.18 851 25.13 -7.3 18.8 77 -10.6 12.9
22:45 1022 30.18 851 25.13 -7.3 18.8 78 -10.6 12.9
22:50 1022 30.18 851 25.13 -7.4 18.7 78 -10.6 12.9
22:55 1022 30.18 851 25.13 -7.4 18.6 78 -10.6 13
23:00 1022 30.18 851 25.13 -7.5 18.6 79 -10.6 13
23:05 1022 30.18 851 25.13 -7.5 18.6 79 -10.5 13.1
23:10 1022 30.18 851 25.13 -7.5 18.6 80 -10.4 13.3
23:15 1022 30.18 851 25.13 -7.6 18.4 81 -10.3 13.5
23:20 1022 30.18 851 25.13 -7.7 18.2 81 -10.3 13.4
23:25 1022 30.18 851 25.13 -7.7 18.1 81 -10.5 13.1
23:30 1022 30.18 851 25.13 -7.7 18.1 81 -10.5 13.2
23:35 1022 30.18 851 25.13 -7.8 17.9 81 -10.5 13.1
23:40 1022 30.18 851 25.13 -7.9 17.8 81 -10.6 12.9
23:45 1022 30.18 851 25.13 -8 17.7 81 -10.8 12.6
23:50 1022 30.18 851 25.13 -8 17.6 81 -10.8 12.6
23:55 1022 30.18 851 25.13 -8 17.5 80 -10.9 12.4
24:00 1022 30.18 851 25.13 -8.1 17.5 80 -10.9 12.4